Filia Ariea — PIET — position and weather

sailwx.info

Track history (hours):
 
Tides and Currents Weather Stations Pressure Air Temp Water Temp Dewpoint Dewpoint Depression Visibility Wind Speed Wind Dir Waves Ship Positions

Filia Ariea

Last reported at 2014-Oct-24 18:04 UTC. Time now 2014-Oct-25 17:40 UTC.
Position N 32°19' W 013°47'.

Length 90 m; draft 3.9 m.

Type: Ship (hazmat cat A). MMSI: 244662000.

Date/timePositionNaut miles runAvg speedWind from/ knotsBaromVisibWave heightAir tempDewpointWater temp
2014-Oct-24 18:04N 32°19' W 013°47'36912.5
2014-Oct-23 12:32N 38°17' W 011°56'1212.1
2014-Oct-23 11:33N 38°29' W 011°53'1311.9
2014-Oct-23 10:28N 38°41' W 011°49'7612.1
2014-Oct-23 04:12N 39°54' W 011°21'  
2014-Oct-19 19:04N 50°54' E 001°08'4 7.7
2014-Oct-19 18:34N 50°56' E 001°13'9 8.5
2014-Oct-19 17:33N 51°02' E 001°24'1010.2
2014-Oct-19 16:34N 51°09' E 001°36'1010.1
2014-Oct-19 15:33N 51°15' E 001°47'1010.0
2014-Oct-19 14:33N 51°24' E 001°57'10 9.5
2014-Oct-19 13:33N 51°31' E 002°06'9 9.4
2014-Oct-19 12:33N 51°38' E 002°16'10 9.3
2014-Oct-19 11:28N 51°46' E 002°27'11 8.7
2014-Oct-19 10:09N 51°54' E 002°40'35 9.7
2014-Oct-19 06:33N 52°03' E 003°35'1111.7
2014-Oct-19 05:33N 52°02' E 003°54'7 7.2
2014-Oct-19 04:33N 51°58' E 004°03'0 0.1
2014-Oct-19 03:32N 51°58' E 004°03'0 0.0
2014-Oct-19 02:32N 51°58' E 004°03'0 0.0
2014-Oct-19 01:22N 51°58' E 004°03'0 0.0
2014-Oct-19 00:31N 51°58' E 004°03'0 0.0
2014-Oct-18 23:30N 51°58' E 004°03'0 0.0
2014-Oct-18 22:24N 51°58' E 004°03'0 0.0
2014-Oct-18 21:29N 51°58' E 004°03'0 0.0
2014-Oct-18 20:29N 51°58' E 004°03'0 0.0
2014-Oct-18 19:23N 51°58' E 004°03'0 0.0
2014-Oct-18 18:31N 51°58' E 004°03'0 0.0
2014-Oct-18 17:31N 51°58' E 004°03'0 0.0
2014-Oct-18 16:30N 51°58' E 004°03'0 0.0
2014-Oct-18 15:33N 51°58' E 004°03'0 0.0
2014-Oct-18 14:32N 51°58' E 004°03'0 0.0
2014-Oct-18 13:32N 51°58' E 004°03'0 0.0
2014-Oct-18 12:26N 51°58' E 004°03'0 0.0
2014-Oct-18 11:31N 51°58' E 004°03'0 0.0
2014-Oct-18 10:31N 51°58' E 004°03'0 0.0
2014-Oct-18 09:33N 51°58' E 004°03'0 0.0
2014-Oct-18 08:27N 51°58' E 004°03'0 0.0
2014-Oct-18 07:17N 51°58' E 004°03'0 0.0
2014-Oct-18 06:29N 51°58' E 004°03'0 0.0
2014-Oct-18 05:32N 51°58' E 004°03'0 0.0
2014-Oct-18 04:28N 51°58' E 004°03'0 0.0
2014-Oct-18 03:28N 51°58' E 004°03'0 0.0
2014-Oct-18 02:33N 51°58' E 004°03'0 0.0
2014-Oct-18 01:33N 51°58' E 004°03'0 0.0
2014-Oct-18 00:29N 51°58' E 004°03'0 0.0
2014-Oct-17 23:32N 51°58' E 004°03'0 0.0
2014-Oct-17 22:29N 51°58' E 004°03'0 0.0
2014-Oct-17 21:31N 51°58' E 004°03'0 0.0
2014-Oct-17 20:25N 51°58' E 004°03'0 0.0
2014-Oct-17 19:33N 51°58' E 004°03'0 0.0
2014-Oct-17 18:27N 51°58' E 004°03'0 0.0
2014-Oct-17 17:33N 51°58' E 004°03'0 0.0
2014-Oct-17 16:29N 51°58' E 004°03'0 0.0
2014-Oct-17 15:29N 51°58' E 004°03'0 0.0
2014-Oct-17 14:31N 51°58' E 004°03'0 0.0
2014-Oct-17 13:25N 51°58' E 004°03'0 0.0
2014-Oct-17 12:30N 51°58' E 004°03'0 0.0
2014-Oct-17 11:33N 51°58' E 004°03'0 0.0
2014-Oct-17 10:29N 51°58' E 004°03'0 0.0
2014-Oct-17 09:32N 51°58' E 004°03'0 0.0
2014-Oct-17 08:32N 51°58' E 004°03'0 0.0
2014-Oct-17 07:31N 51°58' E 004°03'0 0.0
2014-Oct-17 06:19N 51°58' E 004°03'0 0.0
2014-Oct-17 05:33N 51°58' E 004°03'0 0.0
2014-Oct-17 04:33N 51°58' E 004°03'0 0.0
2014-Oct-17 03:32N 51°58' E 004°03'0 0.0
2014-Oct-17 02:26N 51°58' E 004°03'0 0.1
2014-Oct-17 01:29N 51°58' E 004°03'0 0.0
2014-Oct-17 00:22N 51°58' E 004°03'0 0.0
2014-Oct-16 23:31N 51°58' E 004°03'0 0.0
2014-Oct-16 22:33N 51°58' E 004°03'0 0.0
2014-Oct-16 21:31N 51°58' E 004°03'0 0.0
2014-Oct-16 20:33N 51°58' E 004°03'1 1.4
2014-Oct-16 19:33N 51°59' E 004°04'8 8.0
2014-Oct-16 18:33N 52°07' E 004°08'10 9.9
2014-Oct-16 17:33N 52°15' E 004°16'1111.1
2014-Oct-16 16:33N 52°25' E 004°26'8 7.6
2014-Oct-16 15:33N 52°28' E 004°37'8 7.9
2014-Oct-16 14:34N 52°25' E 004°49'1 1.1
2014-Oct-16 13:32N 52°24' E 004°49'0 0.0
2014-Oct-16 12:31N 52°24' E 004°49'0 0.0
2014-Oct-16 11:31N 52°24' E 004°49'0 0.0
2014-Oct-16 10:33N 52°24' E 004°49'0 0.0
2014-Oct-16 09:33N 52°24' E 004°49'0 0.0
2014-Oct-16 08:33N 52°24' E 004°49'0 0.0
2014-Oct-16 07:32N 52°24' E 004°49'0 0.0
2014-Oct-16 06:32N 52°24' E 004°49'0 0.0
2014-Oct-16 05:31N 52°24' E 004°49'0 0.0
2014-Oct-16 04:31N 52°24' E 004°49'0 0.0
2014-Oct-16 03:30N 52°24' E 004°49'0 0.0
2014-Oct-16 02:33N 52°24' E 004°49'0 0.0
2014-Oct-16 01:33N 52°24' E 004°49'0 0.0
2014-Oct-16 00:32N 52°24' E 004°49'0 0.0
2014-Oct-15 23:32N 52°24' E 004°49'0 0.0
2014-Oct-15 22:31N 52°24' E 004°49'0 0.1
2014-Oct-15 21:32N 52°24' E 004°50'0 0.0
2014-Oct-15 20:33N 52°24' E 004°50'0 0.0
2014-Oct-15 19:33N 52°24' E 004°50'0 0.0
2014-Oct-15 18:33N 52°24' E 004°50'2 1.9
2014-Oct-15 17:34N 52°25' E 004°47'8 7.5
2014-Oct-15 16:33N 52°28' E 004°36'3 3.1
2014-Oct-15 15:33N 52°28' E 004°31'9 9.3
2014-Oct-15 14:33N 52°33' E 004°17'9 8.8
2014-Oct-15 13:32N 52°38' E 004°05'  
Track history (hours):
 
Tides and Currents Weather Stations Pressure Air Temp Water Temp Dewpoint Dewpoint Depression Visibility Wind Speed Wind Dir Waves Ship Positions

Filia Ariea

Last reported at 2014-Oct-24 18:04 UTC. Time now 2014-Oct-25 17:40 UTC.
Position N 32°19' W 013°47'.

Length 90 m; draft 3.9 m.

Type: Ship (hazmat cat A). MMSI: 244662000.

Date/timePositionNaut miles runAvg speedWind from/ knotsBaromVisibWave heightAir tempDewpointWater temp
2014-Oct-24 18:04N 32°19' W 013°47'36912.5
2014-Oct-23 12:32N 38°17' W 011°56'1212.1
2014-Oct-23 11:33N 38°29' W 011°53'1311.9
2014-Oct-23 10:28N 38°41' W 011°49'7612.1
2014-Oct-23 04:12N 39°54' W 011°21'  
2014-Oct-19 19:04N 50°54' E 001°08'4 7.7
2014-Oct-19 18:34N 50°56' E 001°13'9 8.5
2014-Oct-19 17:33N 51°02' E 001°24'1010.2
2014-Oct-19 16:34N 51°09' E 001°36'1010.1
2014-Oct-19 15:33N 51°15' E 001°47'1010.0
2014-Oct-19 14:33N 51°24' E 001°57'10 9.5
2014-Oct-19 13:33N 51°31' E 002°06'9 9.4
2014-Oct-19 12:33N 51°38' E 002°16'10 9.3
2014-Oct-19 11:28N 51°46' E 002°27'11 8.7
2014-Oct-19 10:09N 51°54' E 002°40'35 9.7
2014-Oct-19 06:33N 52°03' E 003°35'1111.7
2014-Oct-19 05:33N 52°02' E 003°54'7 7.2
2014-Oct-19 04:33N 51°58' E 004°03'0 0.1
2014-Oct-19 03:32N 51°58' E 004°03'0 0.0
2014-Oct-19 02:32N 51°58' E 004°03'0 0.0
2014-Oct-19 01:22N 51°58' E 004°03'0 0.0
2014-Oct-19 00:31N 51°58' E 004°03'0 0.0
2014-Oct-18 23:30N 51°58' E 004°03'0 0.0
2014-Oct-18 22:24N 51°58' E 004°03'0 0.0
2014-Oct-18 21:29N 51°58' E 004°03'0 0.0
2014-Oct-18 20:29N 51°58' E 004°03'0 0.0
2014-Oct-18 19:23N 51°58' E 004°03'0 0.0
2014-Oct-18 18:31N 51°58' E 004°03'0 0.0
2014-Oct-18 17:31N 51°58' E 004°03'0 0.0
2014-Oct-18 16:30N 51°58' E 004°03'0 0.0
2014-Oct-18 15:33N 51°58' E 004°03'0 0.0
2014-Oct-18 14:32N 51°58' E 004°03'0 0.0
2014-Oct-18 13:32N 51°58' E 004°03'0 0.0
2014-Oct-18 12:26N 51°58' E 004°03'0 0.0
2014-Oct-18 11:31N 51°58' E 004°03'0 0.0
2014-Oct-18 10:31N 51°58' E 004°03'0 0.0
2014-Oct-18 09:33N 51°58' E 004°03'0 0.0
2014-Oct-18 08:27N 51°58' E 004°03'0 0.0
2014-Oct-18 07:17N 51°58' E 004°03'0 0.0
2014-Oct-18 06:29N 51°58' E 004°03'0 0.0
2014-Oct-18 05:32N 51°58' E 004°03'0 0.0
2014-Oct-18 04:28N 51°58' E 004°03'0 0.0
2014-Oct-18 03:28N 51°58' E 004°03'0 0.0
2014-Oct-18 02:33N 51°58' E 004°03'0 0.0
2014-Oct-18 01:33N 51°58' E 004°03'0 0.0
2014-Oct-18 00:29N 51°58' E 004°03'0 0.0
2014-Oct-17 23:32N 51°58' E 004°03'0 0.0
2014-Oct-17 22:29N 51°58' E 004°03'0 0.0
2014-Oct-17 21:31N 51°58' E 004°03'0 0.0
2014-Oct-17 20:25N 51°58' E 004°03'0 0.0
2014-Oct-17 19:33N 51°58' E 004°03'0 0.0
2014-Oct-17 18:27N 51°58' E 004°03'0 0.0
2014-Oct-17 17:33N 51°58' E 004°03'0 0.0
2014-Oct-17 16:29N 51°58' E 004°03'0 0.0
2014-Oct-17 15:29N 51°58' E 004°03'0 0.0
2014-Oct-17 14:31N 51°58' E 004°03'0 0.0
2014-Oct-17 13:25N 51°58' E 004°03'0 0.0
2014-Oct-17 12:30N 51°58' E 004°03'0 0.0
2014-Oct-17 11:33N 51°58' E 004°03'0 0.0
2014-Oct-17 10:29N 51°58' E 004°03'0 0.0
2014-Oct-17 09:32N 51°58' E 004°03'0 0.0
2014-Oct-17 08:32N 51°58' E 004°03'0 0.0
2014-Oct-17 07:31N 51°58' E 004°03'0 0.0
2014-Oct-17 06:19N 51°58' E 004°03'0 0.0
2014-Oct-17 05:33N 51°58' E 004°03'0 0.0
2014-Oct-17 04:33N 51°58' E 004°03'0 0.0
2014-Oct-17 03:32N 51°58' E 004°03'0 0.0
2014-Oct-17 02:26N 51°58' E 004°03'0 0.1
2014-Oct-17 01:29N 51°58' E 004°03'0 0.0
2014-Oct-17 00:22N 51°58' E 004°03'0 0.0
2014-Oct-16 23:31N 51°58' E 004°03'0 0.0
2014-Oct-16 22:33N 51°58' E 004°03'0 0.0
2014-Oct-16 21:31N 51°58' E 004°03'0 0.0
2014-Oct-16 20:33N 51°58' E 004°03'1 1.4
2014-Oct-16 19:33N 51°59' E 004°04'8 8.0
2014-Oct-16 18:33N 52°07' E 004°08'10 9.9
2014-Oct-16 17:33N 52°15' E 004°16'1111.1
2014-Oct-16 16:33N 52°25' E 004°26'8 7.6
2014-Oct-16 15:33N 52°28' E 004°37'8 7.9
2014-Oct-16 14:34N 52°25' E 004°49'1 1.1
2014-Oct-16 13:32N 52°24' E 004°49'0 0.0
2014-Oct-16 12:31N 52°24' E 004°49'0 0.0
2014-Oct-16 11:31N 52°24' E 004°49'0 0.0
2014-Oct-16 10:33N 52°24' E 004°49'0 0.0
2014-Oct-16 09:33N 52°24' E 004°49'0 0.0
2014-Oct-16 08:33N 52°24' E 004°49'0 0.0
2014-Oct-16 07:32N 52°24' E 004°49'0 0.0
2014-Oct-16 06:32N 52°24' E 004°49'0 0.0
2014-Oct-16 05:31N 52°24' E 004°49'0 0.0
2014-Oct-16 04:31N 52°24' E 004°49'0 0.0
2014-Oct-16 03:30N 52°24' E 004°49'0 0.0
2014-Oct-16 02:33N 52°24' E 004°49'0 0.0
2014-Oct-16 01:33N 52°24' E 004°49'0 0.0
2014-Oct-16 00:32N 52°24' E 004°49'0 0.0
2014-Oct-15 23:32N 52°24' E 004°49'0 0.0
2014-Oct-15 22:31N 52°24' E 004°49'0 0.1
2014-Oct-15 21:32N 52°24' E 004°50'0 0.0
2014-Oct-15 20:33N 52°24' E 004°50'0 0.0
2014-Oct-15 19:33N 52°24' E 004°50'0 0.0
2014-Oct-15 18:33N 52°24' E 004°50'2 1.9
2014-Oct-15 17:34N 52°25' E 004°47'8 7.5
2014-Oct-15 16:33N 52°28' E 004°36'3 3.1
2014-Oct-15 15:33N 52°28' E 004°31'9 9.3
2014-Oct-15 14:33N 52°33' E 004°17'9 8.8
2014-Oct-15 13:32N 52°38' E 004°05'  

Dump ship's entire track history